createdAt,value
2023-05-09T00:10:33.570Z,26
2023-05-09T00:39:17.826Z,26
2023-05-09T01:08:11.031Z,22
2023-05-09T01:37:04.674Z,15
2023-05-09T02:05:48.865Z,13
2023-05-09T02:34:38.154Z,13
2023-05-09T03:03:28.872Z,14
2023-05-09T03:32:06.000Z,14
2023-05-09T04:00:54.543Z,14
2023-05-09T04:29:36.765Z,32
2023-05-09T04:58:28.793Z,14
2023-05-09T05:27:05.597Z,15
2023-05-09T05:55:50.061Z,15
2023-05-09T06:24:39.303Z,13
2023-05-09T06:53:22.474Z,13
2023-05-09T07:22:23.512Z,10
2023-05-09T07:50:59.620Z,12
2023-05-09T08:19:44.333Z,10
2023-05-09T08:48:59.119Z,9
2023-05-09T09:17:35.511Z,10
2023-05-09T09:46:23.908Z,10
2023-05-09T10:14:46.267Z,10
2023-05-09T10:43:23.267Z,8
2023-05-09T11:12:00.644Z,8
2023-05-09T11:40:44.150Z,6
2023-05-09T12:09:23.352Z,8
2023-05-09T12:38:20.191Z,7
2023-05-09T13:06:55.811Z,7
2023-05-09T13:35:20.235Z,6
2023-05-09T14:03:41.414Z,7
2023-05-09T14:32:17.283Z,7
2023-05-09T15:00:25.856Z,7
2023-05-09T15:28:44.345Z,13
2023-05-09T15:57:17.688Z,8
2023-05-09T16:25:48.349Z,7
2023-05-09T16:54:36.265Z,8
2023-05-09T17:23:22.614Z,6
2023-05-09T17:51:42.048Z,3
2023-05-09T18:20:12.847Z,3
2023-05-09T18:48:34.230Z,3
2023-05-09T19:17:05.892Z,3
2023-05-09T19:45:32.266Z,3
2023-05-09T20:42:42.322Z,4
2023-05-09T21:11:09.048Z,4
2023-05-09T21:39:45.064Z,4
2023-05-09T22:08:20.920Z,4
2023-05-09T22:37:02.567Z,3
2023-05-09T23:05:48.251Z,3
2023-05-09T23:34:13.791Z,3
